Terminal Aerodrome Forecast
Issued by NWS

Home | Current Version | Previous Version | Text Only | Print | Product List | Glossary On
Versions: 1 2 3 4 5 6 7 8 9 10 11 12 13 14 15 16 17 18 19 20
000
FTUS41 KBGM 061832 AAA
TAFITH
TAF AMD
KITH 061832Z 0619/0718 16007KT P6SM BKN040 OVC060
     FM070100 18010KT P6SM OVC025
     FM070600 18010KT P6SM OVC015
     FM071300 20007KT 6SM HZ OVC025
     FM071600 21007KT P6SM BKN040=

USA.gov is the U.S. government's official web portal to all federal, state and local government web resources and services.